sensor_id;sensor_type;location;lat;lon;timestamp;temperature;humidity
20422;DHT22;10370;53.102;18.034;2022-07-11T00:04:21;13.10;99.90
20422;DHT22;10370;53.102;18.034;2022-07-11T00:09:42;13.10;99.90
20422;DHT22;10370;53.102;18.034;2022-07-11T00:15:03;13.10;99.90
20422;DHT22;10370;53.102;18.034;2022-07-11T00:20:25;13.00;99.90
20422;DHT22;10370;53.102;18.034;2022-07-11T00:25:46;12.90;99.90
20422;DHT22;10370;53.102;18.034;2022-07-11T00:31:08;12.90;99.90
20422;DHT22;10370;53.102;18.034;2022-07-11T00:36:31;12.90;99.90
20422;DHT22;10370;53.102;18.034;2022-07-11T00:42:02;12.80;99.90
20422;DHT22;10370;53.102;18.034;2022-07-11T00:47:28;12.80;99.90
20422;DHT22;10370;53.102;18.034;2022-07-11T00:53:00;12.70;99.90
20422;DHT22;10370;53.102;18.034;2022-07-11T00:58:27;12.70;99.90
20422;DHT22;10370;53.102;18.034;2022-07-11T01:03:51;12.60;99.90
20422;DHT22;10370;53.102;18.034;2022-07-11T01:09:13;12.60;99.90
20422;DHT22;10370;53.102;18.034;2022-07-11T01:14:36;12.50;99.90
20422;DHT22;10370;53.102;18.034;2022-07-11T01:19:57;12.50;99.90
20422;DHT22;10370;53.102;18.034;2022-07-11T01:25:20;12.40;99.90
20422;DHT22;10370;53.102;18.034;2022-07-11T01:30:53;12.30;99.90
20422;DHT22;10370;53.102;18.034;2022-07-11T01:36:15;12.30;99.90
20422;DHT22;10370;53.102;18.034;2022-07-11T01:41:39;12.30;99.90
20422;DHT22;10370;53.102;18.034;2022-07-11T01:47:11;12.30;99.90
20422;DHT22;10370;53.102;18.034;2022-07-11T01:52:40;12.30;99.90
20422;DHT22;10370;53.102;18.034;2022-07-11T01:58:05;12.20;99.90
20422;DHT22;10370;53.102;18.034;2022-07-11T02:03:29;12.30;99.90
20422;DHT22;10370;53.102;18.034;2022-07-11T02:08:52;12.30;99.90
20422;DHT22;10370;53.102;18.034;2022-07-11T02:14:14;12.30;99.90
20422;DHT22;10370;53.102;18.034;2022-07-11T02:19:37;12.40;99.90
20422;DHT22;10370;53.102;18.034;2022-07-11T02:24:58;12.50;99.90
20422;DHT22;10370;53.102;18.034;2022-07-11T02:31:01;12.40;99.90
20422;DHT22;10370;53.102;18.034;2022-07-11T02:36:39;12.30;99.90
20422;DHT22;10370;53.102;18.034;2022-07-11T02:42:05;12.20;99.90
20422;DHT22;10370;53.102;18.034;2022-07-11T02:53:08;11.90;99.90
20422;DHT22;10370;53.102;18.034;2022-07-11T02:58:29;12.00;99.90
20422;DHT22;10370;53.102;18.034;2022-07-11T03:03:52;12.00;99.90
20422;DHT22;10370;53.102;18.034;2022-07-11T03:09:17;12.00;99.90
20422;DHT22;10370;53.102;18.034;2022-07-11T03:14:41;12.00;99.90
20422;DHT22;10370;53.102;18.034;2022-07-11T03:25:29;12.00;99.90
20422;DHT22;10370;53.102;18.034;2022-07-11T03:30:59;12.10;99.90
20422;DHT22;10370;53.102;18.034;2022-07-11T03:36:29;12.20;99.90
20422;DHT22;10370;53.102;18.034;2022-07-11T03:41:56;12.20;99.90
20422;DHT22;10370;53.102;18.034;2022-07-11T03:47:20;12.30;99.90
20422;DHT22;10370;53.102;18.034;2022-07-11T03:52:43;12.40;99.90
20422;DHT22;10370;53.102;18.034;2022-07-11T03:58:08;12.40;99.90
20422;DHT22;10370;53.102;18.034;2022-07-11T04:03:45;12.40;99.90
20422;DHT22;10370;53.102;18.034;2022-07-11T04:09:12;12.40;99.90
20422;DHT22;10370;53.102;18.034;2022-07-11T04:14:37;12.50;99.90
20422;DHT22;10370;53.102;18.034;2022-07-11T04:20:05;12.50;99.90
20422;DHT22;10370;53.102;18.034;2022-07-11T04:25:26;12.50;99.90
20422;DHT22;10370;53.102;18.034;2022-07-11T04:30:49;12.50;99.90
20422;DHT22;10370;53.102;18.034;2022-07-11T04:36:16;12.50;99.90
20422;DHT22;10370;53.102;18.034;2022-07-11T04:41:43;12.60;99.90
20422;DHT22;10370;53.102;18.034;2022-07-11T04:47:10;12.70;99.90
20422;DHT22;10370;53.102;18.034;2022-07-11T04:52:36;12.90;99.90
20422;DHT22;10370;53.102;18.034;2022-07-11T04:57:59;13.50;99.90
20422;DHT22;10370;53.102;18.034;2022-07-11T05:03:20;15.90;99.90
20422;DHT22;10370;53.102;18.034;2022-07-11T05:08:41;18.10;99.90
20422;DHT22;10370;53.102;18.034;2022-07-11T05:14:02;20.50;99.90
20422;DHT22;10370;53.102;18.034;2022-07-11T05:19:23;22.40;99.90
20422;DHT22;10370;53.102;18.034;2022-07-11T05:24:44;20.30;99.90
20422;DHT22;10370;53.102;18.034;2022-07-11T05:30:06;17.90;99.90
20422;DHT22;10370;53.102;18.034;2022-07-11T05:35:27;18.70;99.90
20422;DHT22;10370;53.102;18.034;2022-07-11T05:40:53;18.00;99.90
20422;DHT22;10370;53.102;18.034;2022-07-11T05:46:15;16.50;99.90
20422;DHT22;10370;53.102;18.034;2022-07-11T05:51:36;15.50;99.90
20422;DHT22;10370;53.102;18.034;2022-07-11T05:56:57;15.30;99.90
20422;DHT22;10370;53.102;18.034;2022-07-11T06:02:19;15.70;99.90
20422;DHT22;10370;53.102;18.034;2022-07-11T06:07:41;15.30;99.90
20422;DHT22;10370;53.102;18.034;2022-07-11T06:13:21;14.80;99.90
20422;DHT22;10370;53.102;18.034;2022-07-11T06:18:43;14.80;99.90
20422;DHT22;10370;53.102;18.034;2022-07-11T06:24:04;16.40;99.90
20422;DHT22;10370;53.102;18.034;2022-07-11T06:29:30;17.10;99.90
20422;DHT22;10370;53.102;18.034;2022-07-11T06:40:12;17.00;99.90
20422;DHT22;10370;53.102;18.034;2022-07-11T06:45:35;16.60;99.90
20422;DHT22;10370;53.102;18.034;2022-07-11T06:50:56;16.30;99.90
20422;DHT22;10370;53.102;18.034;2022-07-11T07:01:52;15.80;99.90
20422;DHT22;10370;53.102;18.034;2022-07-11T07:07:14;15.50;99.90
20422;DHT22;10370;53.102;18.034;2022-07-11T07:12:40;15.30;99.90
20422;DHT22;10370;53.102;18.034;2022-07-11T07:18:01;15.20;99.90
20422;DHT22;10370;53.102;18.034;2022-07-11T07:23:23;15.20;99.90
20422;DHT22;10370;53.102;18.034;2022-07-11T07:28:43;15.30;99.90
20422;DHT22;10370;53.102;18.034;2022-07-11T07:34:07;15.30;99.90
20422;DHT22;10370;53.102;18.034;2022-07-11T07:39:29;15.30;99.90
20422;DHT22;10370;53.102;18.034;2022-07-11T07:44:51;15.40;99.90
20422;DHT22;10370;53.102;18.034;2022-07-11T07:50:12;15.80;99.90
20422;DHT22;10370;53.102;18.034;2022-07-11T07:55:36;15.90;99.90
20422;DHT22;10370;53.102;18.034;2022-07-11T08:00:57;15.70;99.90
20422;DHT22;10370;53.102;18.034;2022-07-11T08:06:38;15.80;99.90
20422;DHT22;10370;53.102;18.034;2022-07-11T08:12:01;16.00;99.90
20422;DHT22;10370;53.102;18.034;2022-07-11T08:17:23;16.00;99.90
20422;DHT22;10370;53.102;18.034;2022-07-11T08:22:44;16.20;99.90
20422;DHT22;10370;53.102;18.034;2022-07-11T08:28:05;16.40;99.90
20422;DHT22;10370;53.102;18.034;2022-07-11T08:33:26;16.50;99.90
20422;DHT22;10370;53.102;18.034;2022-07-11T08:38:47;16.60;99.90
20422;DHT22;10370;53.102;18.034;2022-07-11T08:44:08;16.70;99.90
20422;DHT22;10370;53.102;18.034;2022-07-11T08:49:30;16.80;99.90
20422;DHT22;10370;53.102;18.034;2022-07-11T08:54:52;16.90;99.90
20422;DHT22;10370;53.102;18.034;2022-07-11T09:00:13;17.10;99.90
20422;DHT22;10370;53.102;18.034;2022-07-11T09:05:35;17.30;99.90
20422;DHT22;10370;53.102;18.034;2022-07-11T09:10:57;17.30;99.90
20422;DHT22;10370;53.102;18.034;2022-07-11T09:16:18;17.70;99.90
20422;DHT22;10370;53.102;18.034;2022-07-11T09:22:12;18.00;99.90
20422;DHT22;10370;53.102;18.034;2022-07-11T09:27:59;18.20;99.90
20422;DHT22;10370;53.102;18.034;2022-07-11T09:33:27;18.50;99.90
20422;DHT22;10370;53.102;18.034;2022-07-11T09:38:57;18.80;99.90
20422;DHT22;10370;53.102;18.034;2022-07-11T09:44:25;18.70;99.90
20422;DHT22;10370;53.102;18.034;2022-07-11T09:49:49;18.60;99.90
20422;DHT22;10370;53.102;18.034;2022-07-11T09:55:11;19.10;99.90
20422;DHT22;10370;53.102;18.034;2022-07-11T10:00:52;18.40;99.90
20422;DHT22;10370;53.102;18.034;2022-07-11T10:06:14;17.00;99.90
20422;DHT22;10370;53.102;18.034;2022-07-11T10:11:35;16.40;99.90
20422;DHT22;10370;53.102;18.034;2022-07-11T10:17:05;16.00;99.90
20422;DHT22;10370;53.102;18.034;2022-07-11T10:22:50;16.30;99.90
20422;DHT22;10370;53.102;18.034;2022-07-11T10:28:27;16.40;99.90
20422;DHT22;10370;53.102;18.034;2022-07-11T10:34:03;16.80;99.90
20422;DHT22;10370;53.102;18.034;2022-07-11T10:39:25;17.10;99.90
20422;DHT22;10370;53.102;18.034;2022-07-11T10:44:50;17.40;99.90
20422;DHT22;10370;53.102;18.034;2022-07-11T11:01:24;18.20;99.90
20422;DHT22;10370;53.102;18.034;2022-07-11T11:06:58;18.50;99.90
20422;DHT22;10370;53.102;18.034;2022-07-11T11:12:19;18.90;99.90
20422;DHT22;10370;53.102;18.034;2022-07-11T11:17:40;19.30;99.90
20422;DHT22;10370;53.102;18.034;2022-07-11T11:23:08;19.50;99.90
20422;DHT22;10370;53.102;18.034;2022-07-11T11:28:31;19.70;99.90
20422;DHT22;10370;53.102;18.034;2022-07-11T11:33:56;19.80;99.90
20422;DHT22;10370;53.102;18.034;2022-07-11T11:39:32;19.70;99.90
20422;DHT22;10370;53.102;18.034;2022-07-11T11:45:04;19.60;99.90
20422;DHT22;10370;53.102;18.034;2022-07-11T11:50:46;19.20;99.90
20422;DHT22;10370;53.102;18.034;2022-07-11T11:56:22;18.10;99.90
20422;DHT22;10370;53.102;18.034;2022-07-11T12:01:50;17.50;99.90
20422;DHT22;10370;53.102;18.034;2022-07-11T12:07:11;17.60;99.90
20422;DHT22;10370;53.102;18.034;2022-07-11T12:12:32;18.00;99.90
20422;DHT22;10370;53.102;18.034;2022-07-11T12:18:07;18.50;99.90
20422;DHT22;10370;53.102;18.034;2022-07-11T12:23:31;19.10;99.90
20422;DHT22;10370;53.102;18.034;2022-07-11T12:29:11;19.60;99.90
20422;DHT22;10370;53.102;18.034;2022-07-11T12:39:55;19.50;99.90
20422;DHT22;10370;53.102;18.034;2022-07-11T12:45:22;19.70;99.90
20422;DHT22;10370;53.102;18.034;2022-07-11T12:50:43;19.80;99.90
20422;DHT22;10370;53.102;18.034;2022-07-11T12:56:04;19.70;99.90
20422;DHT22;10370;53.102;18.034;2022-07-11T13:01:25;19.60;99.90
20422;DHT22;10370;53.102;18.034;2022-07-11T13:06:49;19.30;99.90
20422;DHT22;10370;53.102;18.034;2022-07-11T13:12:53;19.00;99.90
20422;DHT22;10370;53.102;18.034;2022-07-11T13:18:14;18.70;99.90
20422;DHT22;10370;53.102;18.034;2022-07-11T13:23:36;16.90;99.90
20422;DHT22;10370;53.102;18.034;2022-07-11T13:28:57;16.20;99.90
20422;DHT22;10370;53.102;18.034;2022-07-11T13:34:18;16.00;99.90
20422;DHT22;10370;53.102;18.034;2022-07-11T13:39:39;16.00;99.90
20422;DHT22;10370;53.102;18.034;2022-07-11T13:45:01;16.40;99.90
20422;DHT22;10370;53.102;18.034;2022-07-11T13:50:22;16.70;99.90
20422;DHT22;10370;53.102;18.034;2022-07-11T13:55:43;17.00;99.90
20422;DHT22;10370;53.102;18.034;2022-07-11T14:01:04;17.10;99.90
20422;DHT22;10370;53.102;18.034;2022-07-11T14:06:25;17.20;99.90
20422;DHT22;10370;53.102;18.034;2022-07-11T14:12:07;17.30;99.90
20422;DHT22;10370;53.102;18.034;2022-07-11T14:17:29;17.50;99.90
20422;DHT22;10370;53.102;18.034;2022-07-11T14:22:49;17.70;99.90
20422;DHT22;10370;53.102;18.034;2022-07-11T14:28:11;17.80;99.90
20422;DHT22;10370;53.102;18.034;2022-07-11T14:33:32;18.00;99.90
20422;DHT22;10370;53.102;18.034;2022-07-11T14:38:53;17.80;99.90
20422;DHT22;10370;53.102;18.034;2022-07-11T14:44:14;17.80;99.90
20422;DHT22;10370;53.102;18.034;2022-07-11T14:49:35;18.00;99.90
20422;DHT22;10370;53.102;18.034;2022-07-11T14:54:57;18.20;99.90
20422;DHT22;10370;53.102;18.034;2022-07-11T15:00:18;18.50;99.90
20422;DHT22;10370;53.102;18.034;2022-07-11T15:05:40;18.60;99.90
20422;DHT22;10370;53.102;18.034;2022-07-11T15:11:02;18.70;99.90
20422;DHT22;10370;53.102;18.034;2022-07-11T15:16:41;19.00;99.90
20422;DHT22;10370;53.102;18.034;2022-07-11T15:22:06;19.20;99.90
20422;DHT22;10370;53.102;18.034;2022-07-11T15:27:27;19.60;99.90
20422;DHT22;10370;53.102;18.034;2022-07-11T15:32:48;19.60;99.90
20422;DHT22;10370;53.102;18.034;2022-07-11T15:38:12;19.50;99.90
20422;DHT22;10370;53.102;18.034;2022-07-11T15:43:33;19.50;99.90
20422;DHT22;10370;53.102;18.034;2022-07-11T15:48:54;19.40;99.90
20422;DHT22;10370;53.102;18.034;2022-07-11T15:54:15;19.10;99.90
20422;DHT22;10370;53.102;18.034;2022-07-11T15:59:37;18.80;99.90
20422;DHT22;10370;53.102;18.034;2022-07-11T16:04:58;18.60;99.90
20422;DHT22;10370;53.102;18.034;2022-07-11T16:10:19;18.30;99.90
20422;DHT22;10370;53.102;18.034;2022-07-11T16:15:42;18.10;99.90
20422;DHT22;10370;53.102;18.034;2022-07-11T16:21:04;17.90;99.90
20422;DHT22;10370;53.102;18.034;2022-07-11T16:26:25;17.70;99.90
20422;DHT22;10370;53.102;18.034;2022-07-11T16:31:46;17.40;99.90
20422;DHT22;10370;53.102;18.034;2022-07-11T16:37:07;17.10;99.90
20422;DHT22;10370;53.102;18.034;2022-07-11T16:42:29;17.00;99.90
20422;DHT22;10370;53.102;18.034;2022-07-11T16:48:08;16.90;99.90
20422;DHT22;10370;53.102;18.034;2022-07-11T16:53:31;16.80;99.90
20422;DHT22;10370;53.102;18.034;2022-07-11T16:58:52;16.80;99.90
20422;DHT22;10370;53.102;18.034;2022-07-11T17:04:13;16.80;99.90
20422;DHT22;10370;53.102;18.034;2022-07-11T17:09:34;16.80;99.90
20422;DHT22;10370;53.102;18.034;2022-07-11T17:14:55;16.80;99.90
20422;DHT22;10370;53.102;18.034;2022-07-11T17:20:17;16.80;99.90
20422;DHT22;10370;53.102;18.034;2022-07-11T17:25:37;16.90;99.90
20422;DHT22;10370;53.102;18.034;2022-07-11T17:30:59;16.80;99.90
20422;DHT22;10370;53.102;18.034;2022-07-11T17:36:20;16.80;99.90
20422;DHT22;10370;53.102;18.034;2022-07-11T17:41:41;16.70;99.90
20422;DHT22;10370;53.102;18.034;2022-07-11T17:47:02;16.70;99.90
20422;DHT22;10370;53.102;18.034;2022-07-11T17:52:23;16.80;99.90
20422;DHT22;10370;53.102;18.034;2022-07-11T17:57:45;16.70;99.90
20422;DHT22;10370;53.102;18.034;2022-07-11T18:03:06;16.40;99.90
20422;DHT22;10370;53.102;18.034;2022-07-11T18:08:28;16.30;99.90
20422;DHT22;10370;53.102;18.034;2022-07-11T18:13:49;16.20;99.90
20422;DHT22;10370;53.102;18.034;2022-07-11T18:19:10;16.20;99.90
20422;DHT22;10370;53.102;18.034;2022-07-11T18:24:31;16.10;99.90
20422;DHT22;10370;53.102;18.034;2022-07-11T18:29:57;16.10;99.90
20422;DHT22;10370;53.102;18.034;2022-07-11T18:35:19;16.00;99.90
20422;DHT22;10370;53.102;18.034;2022-07-11T18:40:40;16.00;99.90
20422;DHT22;10370;53.102;18.034;2022-07-11T18:46:19;15.90;99.90
20422;DHT22;10370;53.102;18.034;2022-07-11T18:51:41;15.80;99.90
20422;DHT22;10370;53.102;18.034;2022-07-11T18:57:02;15.70;99.90
20422;DHT22;10370;53.102;18.034;2022-07-11T19:02:23;15.60;99.90
20422;DHT22;10370;53.102;18.034;2022-07-11T19:07:45;15.50;99.90
20422;DHT22;10370;53.102;18.034;2022-07-11T19:13:06;15.40;99.90
20422;DHT22;10370;53.102;18.034;2022-07-11T19:18:27;15.20;99.90
20422;DHT22;10370;53.102;18.034;2022-07-11T19:23:49;15.20;99.90
20422;DHT22;10370;53.102;18.034;2022-07-11T19:29:10;15.10;99.90
20422;DHT22;10370;53.102;18.034;2022-07-11T19:34:31;15.10;99.90
20422;DHT22;10370;53.102;18.034;2022-07-11T19:39:53;15.00;99.90
20422;DHT22;10370;53.102;18.034;2022-07-11T19:45:15;15.00;99.90
20422;DHT22;10370;53.102;18.034;2022-07-11T19:50:40;14.90;99.90
20422;DHT22;10370;53.102;18.034;2022-07-11T19:56:01;14.80;99.90
20422;DHT22;10370;53.102;18.034;2022-07-11T20:01:40;14.80;99.90
20422;DHT22;10370;53.102;18.034;2022-07-11T20:07:01;14.70;99.90
20422;DHT22;10370;53.102;18.034;2022-07-11T20:12:22;14.60;99.90
20422;DHT22;10370;53.102;18.034;2022-07-11T20:17:46;14.50;99.90
20422;DHT22;10370;53.102;18.034;2022-07-11T20:23:08;14.40;99.90
20422;DHT22;10370;53.102;18.034;2022-07-11T20:28:29;14.40;99.90
20422;DHT22;10370;53.102;18.034;2022-07-11T20:33:50;14.30;99.90
20422;DHT22;10370;53.102;18.034;2022-07-11T20:39:11;14.20;99.90
20422;DHT22;10370;53.102;18.034;2022-07-11T20:44:32;14.10;99.90
20422;DHT22;10370;53.102;18.034;2022-07-11T20:49:53;14.00;99.90
20422;DHT22;10370;53.102;18.034;2022-07-11T20:55:14;13.90;99.90
20422;DHT22;10370;53.102;18.034;2022-07-11T21:00:36;13.80;99.90
20422;DHT22;10370;53.102;18.034;2022-07-11T21:05:57;13.70;99.90
20422;DHT22;10370;53.102;18.034;2022-07-11T21:11:18;13.60;99.90
20422;DHT22;10370;53.102;18.034;2022-07-11T21:16:39;13.60;99.90
20422;DHT22;10370;53.102;18.034;2022-07-11T21:22:01;13.50;99.90
20422;DHT22;10370;53.102;18.034;2022-07-11T21:27:22;13.40;99.90
20422;DHT22;10370;53.102;18.034;2022-07-11T21:32:43;13.40;99.90
20422;DHT22;10370;53.102;18.034;2022-07-11T21:38:04;13.30;99.90
20422;DHT22;10370;53.102;18.034;2022-07-11T21:43:25;13.20;99.90
20422;DHT22;10370;53.102;18.034;2022-07-11T21:48:46;13.20;99.90
20422;DHT22;10370;53.102;18.034;2022-07-11T21:54:08;13.10;99.90
20422;DHT22;10370;53.102;18.034;2022-07-11T21:59:28;13.10;99.90
20422;DHT22;10370;53.102;18.034;2022-07-11T22:04:50;13.10;99.90
20422;DHT22;10370;53.102;18.034;2022-07-11T22:10:10;13.00;99.90
20422;DHT22;10370;53.102;18.034;2022-07-11T22:15:31;12.90;99.90
20422;DHT22;10370;53.102;18.034;2022-07-11T22:20:52;12.90;99.90
20422;DHT22;10370;53.102;18.034;2022-07-11T22:26:13;12.80;99.90
20422;DHT22;10370;53.102;18.034;2022-07-11T22:31:39;12.80;99.90
20422;DHT22;10370;53.102;18.034;2022-07-11T22:37:00;12.70;99.90
20422;DHT22;10370;53.102;18.034;2022-07-11T22:42:21;12.70;99.90
20422;DHT22;10370;53.102;18.034;2022-07-11T22:47:42;12.60;99.90
20422;DHT22;10370;53.102;18.034;2022-07-11T22:53:03;12.60;99.90
20422;DHT22;10370;53.102;18.034;2022-07-11T22:58:24;12.40;99.90
20422;DHT22;10370;53.102;18.034;2022-07-11T23:03:45;12.40;99.90
20422;DHT22;10370;53.102;18.034;2022-07-11T23:09:06;12.20;99.90
20422;DHT22;10370;53.102;18.034;2022-07-11T23:14:27;12.10;99.90
20422;DHT22;10370;53.102;18.034;2022-07-11T23:19:48;12.10;99.90
20422;DHT22;10370;53.102;18.034;2022-07-11T23:25:09;12.00;99.90
20422;DHT22;10370;53.102;18.034;2022-07-11T23:30:30;12.00;99.90
20422;DHT22;10370;53.102;18.034;2022-07-11T23:35:51;12.00;99.90
20422;DHT22;10370;53.102;18.034;2022-07-11T23:41:12;12.00;99.90
20422;DHT22;10370;53.102;18.034;2022-07-11T23:46:33;12.00;99.90
20422;DHT22;10370;53.102;18.034;2022-07-11T23:51:54;11.90;99.90
20422;DHT22;10370;53.102;18.034;2022-07-11T23:57:14;11.90;99.90
